XIO7AE LFPO-LIMC
Flight info
| Callsign | XIO7AE |
|---|---|
| Flight time | 1h 3m |
| Altitude | 31000 |
| Route | BUBLI DCT LUVAL DCT SHARA DCT DEVDI DCT BASGO Z424 RIXUV |
| Aircraft | B77L/H-SDE1E3FGHIJ2J3J4J5J7LM1OP1P2P3RVWXYZ/HB1D1 |
Departure
| Time | 2026-05-01 08:49 |
|---|---|
| Airport | Paris-Orly Airport (LFPO) |
Arrival
| Time | 2026-05-01 09:52 |
|---|---|
| Airport | Milan Malpensa International Airport (LIMC) |
| Time | Latitude | Longitude | Altitude | Speed | Heading |
|---|---|---|---|---|---|
| 2026-05-01 08:13 | 48.74014 | 2.38191 | 295 ft | 0 kts | 348° |
| 2026-05-01 08:34 | 48.74018 | 2.38190 | 299 ft | 2 kts | 348° |
| 2026-05-01 08:35 | 48.74053 | 2.38177 | 298 ft | 8 kts | 344° |
| 2026-05-01 08:35 | 48.74109 | 2.38170 | 299 ft | 9 kts | 21° |
| 2026-05-01 08:35 | 48.74131 | 2.38246 | 300 ft | 9 kts | 101° |
| 2026-05-01 08:35 | 48.74084 | 2.38297 | 299 ft | 9 kts | 169° |
| 2026-05-01 08:36 | 48.74024 | 2.38315 | 297 ft | 9 kts | 169° |
| 2026-05-01 08:36 | 48.73963 | 2.38332 | 297 ft | 9 kts | 169° |
| 2026-05-01 08:36 | 48.73902 | 2.38349 | 297 ft | 9 kts | 169° |
| 2026-05-01 08:36 | 48.73841 | 2.38365 | 297 ft | 9 kts | 170° |
| 2026-05-01 08:37 | 48.73781 | 2.38374 | 296 ft | 9 kts | 187° |
| 2026-05-01 08:37 | 48.73721 | 2.38345 | 298 ft | 9 kts | 194° |
| 2026-05-01 08:37 | 48.73656 | 2.38327 | 297 ft | 12 kts | 193° |
| 2026-05-01 08:37 | 48.73569 | 2.38284 | 298 ft | 13 kts | 198° |
| 2026-05-01 08:38 | 48.73483 | 2.38241 | 300 ft | 13 kts | 198° |
| 2026-05-01 08:38 | 48.73395 | 2.38196 | 298 ft | 13 kts | 199° |
| 2026-05-01 08:38 | 48.73311 | 2.38153 | 297 ft | 13 kts | 198° |
| 2026-05-01 08:38 | 48.73223 | 2.38110 | 299 ft | 13 kts | 198° |
| 2026-05-01 08:39 | 48.73134 | 2.38065 | 296 ft | 13 kts | 198° |
| 2026-05-01 08:39 | 48.73076 | 2.38036 | 299 ft | 13 kts | 199° |
| 2026-05-01 08:39 | 48.72959 | 2.37975 | 299 ft | 13 kts | 199° |
| 2026-05-01 08:39 | 48.72900 | 2.37944 | 297 ft | 13 kts | 199° |
| 2026-05-01 08:40 | 48.72728 | 2.37845 | 300 ft | 13 kts | 223° |
| 2026-05-01 08:40 | 48.72697 | 2.37717 | 297 ft | 13 kts | 255° |
| 2026-05-01 08:40 | 48.72673 | 2.37580 | 299 ft | 13 kts | 253° |
| 2026-05-01 08:41 | 48.72646 | 2.37445 | 299 ft | 13 kts | 253° |
| 2026-05-01 08:41 | 48.72620 | 2.37310 | 297 ft | 13 kts | 254° |
| 2026-05-01 08:41 | 48.72595 | 2.37175 | 297 ft | 13 kts | 254° |
| 2026-05-01 08:41 | 48.72572 | 2.37042 | 299 ft | 14 kts | 256° |
| 2026-05-01 08:42 | 48.72547 | 2.36905 | 298 ft | 14 kts | 254° |
| 2026-05-01 08:42 | 48.72520 | 2.36763 | 298 ft | 15 kts | 253° |
| 2026-05-01 08:42 | 48.72492 | 2.36612 | 297 ft | 15 kts | 256° |
| 2026-05-01 08:42 | 48.72465 | 2.36459 | 297 ft | 15 kts | 253° |
| 2026-05-01 08:43 | 48.72436 | 2.36307 | 297 ft | 15 kts | 254° |
| 2026-05-01 08:43 | 48.72406 | 2.36153 | 297 ft | 15 kts | 254° |
| 2026-05-01 08:43 | 48.72379 | 2.35999 | 298 ft | 15 kts | 256° |
| 2026-05-01 08:43 | 48.72352 | 2.35842 | 295 ft | 16 kts | 254° |
| 2026-05-01 08:44 | 48.72328 | 2.35719 | 297 ft | 13 kts | 253° |
| 2026-05-01 08:44 | 48.72301 | 2.35584 | 299 ft | 14 kts | 253° |
| 2026-05-01 08:44 | 48.72230 | 2.35492 | 298 ft | 14 kts | 195° |
| 2026-05-01 08:44 | 48.72149 | 2.35513 | 298 ft | 8 kts | 163° |
| 2026-05-01 08:45 | 48.72121 | 2.35525 | 299 ft | 0 kts | 163° |
| 2026-05-01 08:46 | 48.72099 | 2.35535 | 297 ft | 7 kts | 159° |
| 2026-05-01 08:46 | 48.72078 | 2.35589 | 299 ft | 0 kts | 102° |
| 2026-05-01 08:46 | 48.72076 | 2.35600 | 298 ft | 2 kts | 102° |
| 2026-05-01 08:47 | 48.72072 | 2.35627 | 298 ft | 3 kts | 102° |
| 2026-05-01 08:47 | 48.72064 | 2.35668 | 296 ft | 5 kts | 115° |
| 2026-05-01 08:47 | 48.72043 | 2.35715 | 300 ft | 6 kts | 123° |
| 2026-05-01 08:47 | 48.72019 | 2.35776 | 298 ft | 8 kts | 121° |
| 2026-05-01 08:48 | 48.71990 | 2.35850 | 299 ft | 9 kts | 121° |
| 2026-05-01 08:48 | 48.71960 | 2.35926 | 298 ft | 9 kts | 113° |
| 2026-05-01 08:48 | 48.71964 | 2.35984 | 296 ft | 0 kts | 72° |
| 2026-05-01 08:48 | 48.71968 | 2.36002 | 296 ft | 6 kts | 72° |
| 2026-05-01 08:49 | 48.72025 | 2.36310 | 297 ft | 64 kts | 75° |
| 2026-05-01 08:49 | 48.72224 | 2.37393 | 298 ft | 146 kts | 75° |
| 2026-05-01 08:49 | 48.72514 | 2.39036 | 822 ft | 157 kts | 75° |
| 2026-05-01 08:49 | 48.72799 | 2.40650 | 1654 ft | 168 kts | 76° |
| 2026-05-01 08:50 | 48.73129 | 2.42403 | 2408 ft | 178 kts | 76° |
| 2026-05-01 08:50 | 48.73459 | 2.44179 | 3367 ft | 177 kts | 76° |
| 2026-05-01 08:50 | 48.73796 | 2.45951 | 4210 ft | 180 kts | 77° |
| 2026-05-01 08:50 | 48.74075 | 2.47929 | 4630 ft | 208 kts | 87° |
| 2026-05-01 08:51 | 48.74167 | 2.50288 | 4958 ft | 242 kts | 89° |
| 2026-05-01 08:51 | 48.74245 | 2.52973 | 5574 ft | 261 kts | 89° |
| 2026-05-01 08:51 | 48.74339 | 2.55773 | 6531 ft | 270 kts | 88° |
| 2026-05-01 08:51 | 48.74546 | 2.58635 | 7555 ft | 275 kts | 84° |
| 2026-05-01 08:52 | 48.74796 | 2.61531 | 8588 ft | 279 kts | 84° |
| 2026-05-01 08:52 | 48.75045 | 2.64482 | 9609 ft | 285 kts | 85° |
| 2026-05-01 08:52 | 48.75290 | 2.67491 | 10599 ft | 291 kts | 85° |
| 2026-05-01 08:52 | 48.75539 | 2.70645 | 11169 ft | 314 kts | 85° |
| 2026-05-01 08:53 | 48.75805 | 2.74104 | 11434 ft | 348 kts | 85° |
| 2026-05-01 08:53 | 48.76094 | 2.77886 | 12013 ft | 369 kts | 85° |
| 2026-05-01 08:53 | 48.76392 | 2.81768 | 13125 ft | 376 kts | 85° |
| 2026-05-01 08:53 | 48.76696 | 2.85728 | 14359 ft | 380 kts | 85° |
| 2026-05-01 08:54 | 48.77002 | 2.89727 | 15468 ft | 384 kts | 86° |
| 2026-05-01 08:54 | 48.77305 | 2.93736 | 16504 ft | 390 kts | 86° |
| 2026-05-01 08:54 | 48.77615 | 2.97860 | 17530 ft | 397 kts | 86° |
| 2026-05-01 08:54 | 48.78007 | 3.01850 | 18491 ft | 404 kts | 83° |
| 2026-05-01 08:55 | 48.78520 | 3.06069 | 19368 ft | 409 kts | 82° |
| 2026-05-01 08:55 | 48.79062 | 3.10342 | 20275 ft | 414 kts | 82° |
| 2026-05-01 08:55 | 48.79602 | 3.14647 | 21199 ft | 418 kts | 82° |
| 2026-05-01 08:55 | 48.80135 | 3.19007 | 22129 ft | 422 kts | 82° |
| 2026-05-01 08:56 | 48.80660 | 3.23403 | 23031 ft | 426 kts | 83° |
| 2026-05-01 08:56 | 48.81184 | 3.27844 | 23902 ft | 430 kts | 83° |
| 2026-05-01 08:56 | 48.81711 | 3.32346 | 24618 ft | 435 kts | 83° |
| 2026-05-01 08:56 | 48.82216 | 3.36888 | 25353 ft | 438 kts | 85° |
| 2026-05-01 08:57 | 48.82274 | 3.41479 | 26036 ft | 438 kts | 97° |
| 2026-05-01 08:57 | 48.81949 | 3.46077 | 26742 ft | 441 kts | 99° |
| 2026-05-01 08:57 | 48.81573 | 3.50712 | 27418 ft | 445 kts | 99° |
| 2026-05-01 08:57 | 48.81202 | 3.55403 | 28057 ft | 451 kts | 98° |
| 2026-05-01 08:58 | 48.80852 | 3.60162 | 28704 ft | 456 kts | 98° |
| 2026-05-01 08:58 | 48.80522 | 3.64964 | 29353 ft | 459 kts | 97° |
| 2026-05-01 08:58 | 48.80205 | 3.69776 | 30199 ft | 458 kts | 97° |
| 2026-05-01 08:58 | 48.79896 | 3.74570 | 30983 ft | 456 kts | 97° |
| 2026-05-01 08:59 | 48.79586 | 3.79372 | 31299 ft | 460 kts | 97° |
| 2026-05-01 08:59 | 48.79273 | 3.84181 | 31258 ft | 458 kts | 97° |
| 2026-05-01 08:59 | 48.78642 | 3.93726 | 31264 ft | 453 kts | 98° |
| 2026-05-01 09:00 | 48.78001 | 4.03257 | 31271 ft | 455 kts | 98° |
| 2026-05-01 09:00 | 48.77293 | 4.12708 | 31260 ft | 452 kts | 103° |
| 2026-05-01 09:01 | 48.76272 | 4.17181 | 31263 ft | 449 kts | 119° |
| 2026-05-01 09:01 | 48.74519 | 4.21056 | 31295 ft | 444 kts | 128° |
| 2026-05-01 09:01 | 48.70808 | 4.28610 | 31274 ft | 449 kts | 126° |
| 2026-05-01 09:02 | 48.67159 | 4.36338 | 31256 ft | 453 kts | 126° |
| 2026-05-01 09:02 | 48.63503 | 4.44114 | 31279 ft | 455 kts | 126° |
| 2026-05-01 09:03 | 48.59820 | 4.51914 | 31264 ft | 456 kts | 126° |
| 2026-05-01 09:03 | 48.56128 | 4.59701 | 31258 ft | 455 kts | 126° |
| 2026-05-01 09:04 | 48.52446 | 4.67440 | 31259 ft | 453 kts | 126° |
| 2026-05-01 09:04 | 48.48780 | 4.75126 | 31255 ft | 451 kts | 126° |
| 2026-05-01 09:05 | 48.45109 | 4.82797 | 31266 ft | 451 kts | 126° |
| 2026-05-01 09:05 | 48.41425 | 4.90478 | 31270 ft | 453 kts | 126° |
| 2026-05-01 09:06 | 48.37750 | 4.98118 | 31255 ft | 454 kts | 126° |
| 2026-05-01 09:06 | 48.34039 | 5.05814 | 31256 ft | 454 kts | 126° |
| 2026-05-01 09:07 | 48.30514 | 5.13693 | 31255 ft | 455 kts | 119° |
| 2026-05-01 09:07 | 48.27941 | 5.22358 | 31253 ft | 456 kts | 109° |
| 2026-05-01 09:08 | 48.26104 | 5.31496 | 31260 ft | 457 kts | 107° |
| 2026-05-01 09:08 | 48.24295 | 5.40653 | 31272 ft | 458 kts | 107° |
| 2026-05-01 09:09 | 48.22458 | 5.49803 | 31275 ft | 458 kts | 108° |
| 2026-05-01 09:09 | 48.20602 | 5.58935 | 31254 ft | 458 kts | 107° |
| 2026-05-01 09:10 | 48.18730 | 5.68080 | 31282 ft | 459 kts | 107° |
| 2026-05-01 09:10 | 48.16850 | 5.77230 | 31280 ft | 460 kts | 107° |
| 2026-05-01 09:11 | 48.14961 | 5.86379 | 31282 ft | 460 kts | 108° |
| 2026-05-01 09:11 | 48.13079 | 5.95461 | 31284 ft | 460 kts | 108° |
| 2026-05-01 09:12 | 48.11160 | 6.04672 | 31288 ft | 461 kts | 107° |
| 2026-05-01 09:12 | 48.09254 | 6.13781 | 31290 ft | 462 kts | 107° |
| 2026-05-01 09:13 | 48.07339 | 6.22896 | 31292 ft | 462 kts | 107° |
| 2026-05-01 09:13 | 48.05407 | 6.32044 | 31295 ft | 462 kts | 107° |
| 2026-05-01 09:14 | 48.03466 | 6.41201 | 31299 ft | 462 kts | 107° |
| 2026-05-01 09:14 | 48.01515 | 6.50359 | 31294 ft | 463 kts | 107° |
| 2026-05-01 09:15 | 47.99570 | 6.59460 | 31299 ft | 463 kts | 107° |
| 2026-05-01 09:15 | 47.97578 | 6.68592 | 31296 ft | 463 kts | 109° |
| 2026-05-01 09:16 | 47.95195 | 6.77515 | 31290 ft | 463 kts | 111° |
| 2026-05-01 09:17 | 47.91536 | 6.90835 | 31304 ft | 464 kts | 111° |
| 2026-05-01 09:17 | 47.87884 | 7.04200 | 31291 ft | 465 kts | 111° |
| 2026-05-01 09:18 | 47.84218 | 7.17572 | 31320 ft | 465 kts | 111° |
| 2026-05-01 09:19 | 47.80530 | 7.30944 | 31326 ft | 466 kts | 111° |
| 2026-05-01 09:20 | 47.76823 | 7.44317 | 31327 ft | 467 kts | 111° |
| 2026-05-01 09:20 | 47.73810 | 7.52756 | 31321 ft | 469 kts | 129° |
| 2026-05-01 09:21 | 47.68574 | 7.58541 | 31313 ft | 473 kts | 154° |
| 2026-05-01 09:21 | 47.59386 | 7.64246 | 31318 ft | 481 kts | 155° |
| 2026-05-01 09:22 | 47.47045 | 7.72115 | 31316 ft | 482 kts | 154° |
| 2026-05-01 09:23 | 47.38873 | 7.77362 | 31323 ft | 480 kts | 154° |
| 2026-05-01 09:24 | 47.29700 | 7.83229 | 31331 ft | 478 kts | 154° |
| 2026-05-01 09:25 | 47.17534 | 7.90969 | 31315 ft | 477 kts | 154° |
| 2026-05-01 09:26 | 47.08382 | 7.96765 | 31335 ft | 478 kts | 155° |
| 2026-05-01 09:26 | 46.99205 | 8.02556 | 31316 ft | 478 kts | 155° |
| 2026-05-01 09:27 | 46.90031 | 8.08325 | 31319 ft | 478 kts | 155° |
| 2026-05-01 09:28 | 46.83913 | 8.12159 | 31321 ft | 478 kts | 155° |
| 2026-05-01 09:28 | 46.77787 | 8.15989 | 31335 ft | 479 kts | 154° |
| 2026-05-01 09:29 | 46.68593 | 8.21719 | 31335 ft | 482 kts | 154° |
| 2026-05-01 09:30 | 46.59313 | 8.27482 | 31329 ft | 484 kts | 155° |
| 2026-05-01 09:30 | 46.50008 | 8.33238 | 31327 ft | 483 kts | 155° |
| 2026-05-01 09:31 | 46.46885 | 8.35167 | 30462 ft | 494 kts | 155° |
| 2026-05-01 09:31 | 46.43739 | 8.37108 | 29279 ft | 498 kts | 155° |
| 2026-05-01 09:31 | 46.37463 | 8.40965 | 27771 ft | 481 kts | 155° |
| 2026-05-01 09:32 | 46.34399 | 8.42847 | 27012 ft | 475 kts | 155° |
| 2026-05-01 09:32 | 46.28321 | 8.46298 | 25574 ft | 466 kts | 161° |
| 2026-05-01 09:32 | 46.25202 | 8.47422 | 24881 ft | 464 kts | 166° |
| 2026-05-01 09:33 | 46.22008 | 8.48096 | 24239 ft | 461 kts | 173° |
| 2026-05-01 09:33 | 46.18857 | 8.48460 | 24009 ft | 445 kts | 173° |
| 2026-05-01 09:33 | 46.12922 | 8.49339 | 23686 ft | 414 kts | 168° |
| 2026-05-01 09:34 | 46.10178 | 8.50161 | 23442 ft | 402 kts | 162° |
| 2026-05-01 09:34 | 46.07546 | 8.51371 | 23045 ft | 394 kts | 156° |
| 2026-05-01 09:34 | 46.02460 | 8.54178 | 21996 ft | 390 kts | 156° |
| 2026-05-01 09:35 | 45.99934 | 8.55553 | 21522 ft | 387 kts | 156° |
| 2026-05-01 09:35 | 45.94937 | 8.58244 | 20679 ft | 379 kts | 156° |
| 2026-05-01 09:35 | 45.92472 | 8.59566 | 20200 ft | 377 kts | 156° |
| 2026-05-01 09:36 | 45.90044 | 8.60908 | 19703 ft | 369 kts | 153° |
| 2026-05-01 09:36 | 45.87900 | 8.62861 | 19088 ft | 365 kts | 137° |
| 2026-05-01 09:36 | 45.85993 | 8.65213 | 18788 ft | 357 kts | 136° |
| 2026-05-01 09:36 | 45.84121 | 8.67483 | 18582 ft | 347 kts | 137° |
| 2026-05-01 09:37 | 45.82284 | 8.69652 | 18353 ft | 338 kts | 137° |
| 2026-05-01 09:37 | 45.78676 | 8.73823 | 17582 ft | 330 kts | 137° |
| 2026-05-01 09:37 | 45.76888 | 8.75877 | 17104 ft | 329 kts | 138° |
| 2026-05-01 09:38 | 45.72977 | 8.79289 | 16221 ft | 327 kts | 150° |
| 2026-05-01 09:38 | 45.70974 | 8.80725 | 15498 ft | 318 kts | 150° |
| 2026-05-01 09:38 | 45.69006 | 8.82161 | 14590 ft | 318 kts | 149° |
| 2026-05-01 09:39 | 45.65109 | 8.85114 | 12727 ft | 314 kts | 149° |
| 2026-05-01 09:39 | 45.63203 | 8.86574 | 11901 ft | 308 kts | 149° |
| 2026-05-01 09:39 | 45.61316 | 8.87895 | 11057 ft | 305 kts | 159° |
| 2026-05-01 09:40 | 45.59258 | 8.88602 | 10250 ft | 303 kts | 168° |
| 2026-05-01 09:40 | 45.55272 | 8.89508 | 9520 ft | 282 kts | 168° |
| 2026-05-01 09:40 | 45.53303 | 8.90013 | 9348 ft | 289 kts | 168° |
| 2026-05-01 09:41 | 45.51334 | 8.90540 | 9174 ft | 284 kts | 167° |
| 2026-05-01 09:41 | 45.47539 | 8.91582 | 8522 ft | 275 kts | 167° |
| 2026-05-01 09:41 | 45.45663 | 8.92104 | 8123 ft | 274 kts | 167° |
| 2026-05-01 09:42 | 45.43842 | 8.92617 | 7769 ft | 258 kts | 167° |
| 2026-05-01 09:42 | 45.42117 | 8.93106 | 7178 ft | 250 kts | 168° |
| 2026-05-01 09:42 | 45.38696 | 8.94125 | 6265 ft | 258 kts | 167° |
| 2026-05-01 09:43 | 45.35224 | 8.95141 | 5976 ft | 245 kts | 167° |
| 2026-05-01 09:43 | 45.33553 | 8.95628 | 5996 ft | 248 kts | 167° |
| 2026-05-01 09:43 | 45.31855 | 8.95839 | 5980 ft | 247 kts | 189° |
| 2026-05-01 09:44 | 45.29286 | 8.92984 | 5885 ft | 238 kts | 247° |
| 2026-05-01 09:44 | 45.28689 | 8.90796 | 5594 ft | 237 kts | 252° |
| 2026-05-01 09:44 | 45.28175 | 8.88619 | 5290 ft | 230 kts | 258° |
| 2026-05-01 09:45 | 45.28207 | 8.86437 | 5136 ft | 219 kts | 292° |
| 2026-05-01 09:45 | 45.30234 | 8.83318 | 5007 ft | 207 kts | 323° |
| 2026-05-01 09:45 | 45.31398 | 8.82320 | 4957 ft | 187 kts | 344° |
| 2026-05-01 09:46 | 45.32686 | 8.81839 | 4995 ft | 197 kts | 346° |
| 2026-05-01 09:46 | 45.34017 | 8.81381 | 4859 ft | 193 kts | 348° |
| 2026-05-01 09:46 | 45.35292 | 8.80995 | 4840 ft | 182 kts | 349° |
| 2026-05-01 09:46 | 45.36527 | 8.80643 | 4809 ft | 183 kts | 350° |
| 2026-05-01 09:47 | 45.37786 | 8.80292 | 4668 ft | 185 kts | 349° |
| 2026-05-01 09:47 | 45.39063 | 8.79939 | 4493 ft | 187 kts | 350° |
| 2026-05-01 09:47 | 45.40336 | 8.79589 | 4310 ft | 185 kts | 350° |
| 2026-05-01 09:47 | 45.41576 | 8.79250 | 4141 ft | 182 kts | 351° |
| 2026-05-01 09:48 | 45.42800 | 8.78918 | 4045 ft | 178 kts | 351° |
| 2026-05-01 09:48 | 45.44034 | 8.78582 | 4078 ft | 184 kts | 351° |
| 2026-05-01 09:48 | 45.45304 | 8.78231 | 4014 ft | 187 kts | 349° |
| 2026-05-01 09:48 | 45.46597 | 8.77875 | 3756 ft | 190 kts | 350° |
| 2026-05-01 09:49 | 45.47890 | 8.77516 | 3503 ft | 189 kts | 350° |
| 2026-05-01 09:49 | 45.49178 | 8.77164 | 3249 ft | 187 kts | 350° |
| 2026-05-01 09:49 | 45.50438 | 8.76819 | 3016 ft | 183 kts | 351° |
| 2026-05-01 09:49 | 45.51632 | 8.76488 | 2764 ft | 180 kts | 351° |
| 2026-05-01 09:50 | 45.52834 | 8.76158 | 2520 ft | 173 kts | 351° |
| 2026-05-01 09:50 | 45.53982 | 8.75840 | 2326 ft | 167 kts | 351° |
| 2026-05-01 09:50 | 45.55127 | 8.75529 | 2063 ft | 166 kts | 351° |
| 2026-05-01 09:50 | 45.56257 | 8.75216 | 1827 ft | 161 kts | 351° |
| 2026-05-01 09:51 | 45.57301 | 8.74927 | 1623 ft | 150 kts | 351° |
| 2026-05-01 09:51 | 45.58347 | 8.74642 | 1394 ft | 153 kts | 351° |
| 2026-05-01 09:51 | 45.59372 | 8.74360 | 1218 ft | 149 kts | 350° |
| 2026-05-01 09:51 | 45.60357 | 8.74090 | 1020 ft | 146 kts | 350° |
| 2026-05-01 09:52 | 45.61361 | 8.73809 | 835 ft | 148 kts | 351° |
| 2026-05-01 09:52 | 45.62344 | 8.73545 | 750 ft | 136 kts | 348° |
| 2026-05-01 09:52 | 45.62995 | 8.73358 | 744 ft | 60 kts | 349° |
| 2026-05-01 09:52 | 45.63308 | 8.73274 | 749 ft | 46 kts | 348° |
| 2026-05-01 09:53 | 45.63598 | 8.73177 | 749 ft | 42 kts | 338° |
| 2026-05-01 09:53 | 45.63796 | 8.72951 | 751 ft | 32 kts | 310° |
| 2026-05-01 09:53 | 45.63910 | 8.72713 | 751 ft | 26 kts | 304° |
| 2026-05-01 09:53 | 45.63949 | 8.72475 | 752 ft | 26 kts | 254° |
| 2026-05-01 09:54 | 45.63916 | 8.72222 | 754 ft | 26 kts | 267° |
| 2026-05-01 09:54 | 45.63905 | 8.71961 | 749 ft | 24 kts | 263° |
| 2026-05-01 09:54 | 45.63814 | 8.71823 | 756 ft | 20 kts | 179° |
| 2026-05-01 09:54 | 45.63699 | 8.71852 | 752 ft | 15 kts | 169° |
| 2026-05-01 09:55 | 45.63595 | 8.71880 | 754 ft | 15 kts | 169° |
| 2026-05-01 09:55 | 45.63492 | 8.71908 | 754 ft | 15 kts | 169° |
| 2026-05-01 09:55 | 45.63388 | 8.71937 | 754 ft | 15 kts | 169° |
| 2026-05-01 09:55 | 45.63314 | 8.71915 | 752 ft | 11 kts | 235° |
| 2026-05-01 09:56 | 45.63294 | 8.71804 | 754 ft | 12 kts | 259° |
| 2026-05-01 09:56 | 45.63277 | 8.71682 | 757 ft | 13 kts | 258° |
| 2026-05-01 09:56 | 45.63258 | 8.71548 | 752 ft | 14 kts | 258° |
| 2026-05-01 09:56 | 45.63276 | 8.71493 | 752 ft | 6 kts | 311° |
| 2026-05-01 09:57 | 45.63304 | 8.71441 | 753 ft | 8 kts | 306° |
| 2026-05-01 09:57 | 45.63319 | 8.71410 | 752 ft | 0 kts | 304° |